createdAt,value
2022-11-03T00:00:50.554Z,4.10
2022-11-03T00:02:53.375Z,4.47
2022-11-03T00:04:56.225Z,4.18
2022-11-03T00:06:57.965Z,4.53
2022-11-03T00:09:04.261Z,4.05
2022-11-03T00:11:12.197Z,4.30
2022-11-03T00:13:14.951Z,3.95
2022-11-03T00:15:17.742Z,4.22
2022-11-03T00:17:20.517Z,4.57
2022-11-03T00:19:23.305Z,4.35
2022-11-03T00:21:26.160Z,3.80
2022-11-03T00:23:30.904Z,4.72
2022-11-03T00:25:34.954Z,4.40
2022-11-03T00:27:37.742Z,4.72
2022-11-03T00:29:40.462Z,4.63
2022-11-03T00:31:45.456Z,4.50
2022-11-03T00:33:49.182Z,4.78
2022-11-03T00:35:51.955Z,5.13
2022-11-03T00:37:54.666Z,4.30
2022-11-03T00:39:57.438Z,4.70
2022-11-03T00:42:01.567Z,4.75
2022-11-03T00:44:04.411Z,4.93
2022-11-03T00:46:08.782Z,5.68
2022-11-03T00:48:29.286Z,5.47
2022-11-03T00:50:34.739Z,14.45
2022-11-03T00:52:37.494Z,13.70
2022-11-03T00:54:44.795Z,13.23
2022-11-03T00:56:48.131Z,19.83
2022-11-03T00:58:54.661Z,16.65
2022-11-03T01:01:01.968Z,13.88
2022-11-03T01:03:05.195Z,8.25
2022-11-03T01:05:27.350Z,8.07
2022-11-03T01:07:30.133Z,7.00
2022-11-03T01:09:36.571Z,6.05
2022-11-03T01:11:44.046Z,5.75
2022-11-03T01:13:47.714Z,7.43
2022-11-03T01:15:51.805Z,6.13
2022-11-03T01:17:54.546Z,6.13
2022-11-03T01:19:57.420Z,5.85
2022-11-03T01:22:00.269Z,6.20
2022-11-03T01:24:03.784Z,5.88
2022-11-03T01:26:06.886Z,4.93
2022-11-03T01:28:09.594Z,4.88
2022-11-03T01:30:13.112Z,4.65
2022-11-03T01:32:17.251Z,4.80
2022-11-03T01:34:21.679Z,4.35
2022-11-03T01:36:25.257Z,4.45
2022-11-03T01:38:28.039Z,4.60
2022-11-03T01:40:30.830Z,4.28
2022-11-03T01:42:33.691Z,4.38
2022-11-03T01:44:40.690Z,4.20
2022-11-03T01:46:46.741Z,4.22
2022-11-03T01:49:04.094Z,4.30
2022-11-03T01:51:09.070Z,77.93
2022-11-03T01:53:13.741Z,41.17
2022-11-03T01:55:19.917Z,15.23
2022-11-03T01:57:26.515Z,8.25
2022-11-03T01:59:29.826Z,6.32
2022-11-03T02:01:33.148Z,4.95
2022-11-03T02:03:40.923Z,5.05
2022-11-03T02:05:46.746Z,4.93
2022-11-03T02:07:54.487Z,4.30
2022-11-03T02:09:57.198Z,4.63
2022-11-03T02:12:09.356Z,4.35
2022-11-03T02:14:13.663Z,4.35
2022-11-03T02:16:16.976Z,4.60
2022-11-03T02:18:23.742Z,4.18
2022-11-03T02:20:29.719Z,4.80
2022-11-03T02:23:14.981Z,5.05
2022-11-03T02:25:33.589Z,4.05
2022-11-03T02:27:36.478Z,4.43
2022-11-03T02:29:39.249Z,4.60
2022-11-03T02:31:44.481Z,4.22
2022-11-03T02:33:52.825Z,4.07
2022-11-03T02:36:00.853Z,4.45
2022-11-03T02:38:07.299Z,4.28
2022-11-03T02:40:14.885Z,4.53
2022-11-03T02:42:20.959Z,4.63
2022-11-03T02:44:25.509Z,4.82
2022-11-03T02:46:31.534Z,4.40
2022-11-03T02:48:34.282Z,4.50
2022-11-03T02:50:36.985Z,4.55
2022-11-03T02:52:41.928Z,4.45
2022-11-03T02:54:47.376Z,5.60
2022-11-03T02:56:53.535Z,4.78
2022-11-03T02:59:02.566Z,4.05
2022-11-03T03:01:15.125Z,4.82
2022-11-03T03:03:24.815Z,4.97
2022-11-03T03:05:31.057Z,7.65
2022-11-03T03:07:37.086Z,12.45
2022-11-03T03:09:44.660Z,9.55
2022-11-03T03:11:49.898Z,13.02
2022-11-03T03:13:52.660Z,8.40
2022-11-03T03:16:07.670Z,7.50
2022-11-03T03:18:17.355Z,5.60
2022-11-03T03:20:24.364Z,5.00
2022-11-03T03:22:33.051Z,4.53
2022-11-03T03:24:41.848Z,4.60
2022-11-03T03:26:49.545Z,4.40
2022-11-03T03:28:57.470Z,4.40
2022-11-03T03:31:04.326Z,5.85
2022-11-03T03:33:09.794Z,4.32
2022-11-03T03:35:18.673Z,4.57
2022-11-03T03:37:24.373Z,4.50
2022-11-03T03:39:32.767Z,4.90
2022-11-03T03:41:38.266Z,4.50
2022-11-03T03:43:43.038Z,4.70
2022-11-03T03:45:49.667Z,4.80
2022-11-03T03:47:57.667Z,4.72
2022-11-03T03:50:01.714Z,4.65
2022-11-03T03:52:04.804Z,4.47
2022-11-03T03:54:07.591Z,5.03
2022-11-03T03:56:10.448Z,4.60
2022-11-03T03:58:15.177Z,4.40
2022-11-03T04:00:19.377Z,4.70
2022-11-03T04:02:22.331Z,4.50
2022-11-03T04:04:26.542Z,4.60
2022-11-03T04:06:29.252Z,4.18
2022-11-03T04:08:31.967Z,4.65
2022-11-03T04:10:34.712Z,4.78
2022-11-03T04:13:03.464Z,5.03
2022-11-03T04:15:24.261Z,5.13
2022-11-03T04:17:44.898Z,4.80
2022-11-03T04:20:06.718Z,5.03
2022-11-03T04:22:18.644Z,4.32
2022-11-03T04:24:21.422Z,4.90
2022-11-03T04:26:24.304Z,4.80
2022-11-03T04:28:27.131Z,5.03
2022-11-03T04:30:29.883Z,4.75
2022-11-03T04:32:32.777Z,5.13
2022-11-03T04:34:35.536Z,5.05
2022-11-03T04:36:39.646Z,4.57
2022-11-03T04:38:44.767Z,4.63
2022-11-03T04:40:52.129Z,5.40
2022-11-03T04:42:58.708Z,5.00
2022-11-03T04:45:03.251Z,6.18
2022-11-03T04:47:12.155Z,4.95
2022-11-03T04:49:21.989Z,4.65
2022-11-03T04:51:27.926Z,5.55
2022-11-03T04:53:34.125Z,6.90
2022-11-03T04:55:36.963Z,10.40
2022-11-03T04:57:40.608Z,6.03
2022-11-03T04:59:46.097Z,5.35
2022-11-03T05:01:49.047Z,5.72
2022-11-03T05:03:53.736Z,5.10
2022-11-03T05:05:57.328Z,5.13
2022-11-03T05:08:00.307Z,4.47
2022-11-03T05:10:07.418Z,4.15
2022-11-03T05:12:11.104Z,4.68
2022-11-03T05:14:17.065Z,4.53
2022-11-03T05:16:21.390Z,5.03
2022-11-03T05:18:27.906Z,4.57
2022-11-03T05:20:36.407Z,4.47
2022-11-03T05:22:39.404Z,4.55
2022-11-03T05:24:42.537Z,4.47
2022-11-03T05:26:46.844Z,4.63
2022-11-03T05:28:53.208Z,4.60
2022-11-03T05:30:57.075Z,4.55
2022-11-03T05:33:00.003Z,4.80
2022-11-03T05:35:03.502Z,5.10
2022-11-03T05:37:26.164Z,5.95
2022-11-03T05:39:31.814Z,5.60
2022-11-03T05:41:36.260Z,5.70
2022-11-03T05:43:40.444Z,7.05
2022-11-03T05:45:43.443Z,6.15
2022-11-03T05:47:46.632Z,6.20
2022-11-03T05:49:50.186Z,6.38
2022-11-03T05:51:52.836Z,6.10
2022-11-03T05:53:58.938Z,5.95
2022-11-03T05:56:04.986Z,5.88
2022-11-03T05:58:19.177Z,5.85
2022-11-03T06:00:34.381Z,5.50
2022-11-03T06:02:39.790Z,5.82
2022-11-03T06:04:42.598Z,5.03
2022-11-03T06:06:51.788Z,5.05
2022-11-03T06:08:54.528Z,4.90
2022-11-03T06:10:59.378Z,4.75
2022-11-03T06:13:05.754Z,4.25
2022-11-03T06:15:21.353Z,5.60
2022-11-03T06:17:27.624Z,6.78
2022-11-03T06:19:32.381Z,5.85
2022-11-03T06:21:35.126Z,5.90
2022-11-03T06:23:38.930Z,6.20
2022-11-03T06:25:43.393Z,5.45
2022-11-03T06:27:46.266Z,4.90
2022-11-03T06:29:51.799Z,5.80
2022-11-03T06:31:57.887Z,9.10
2022-11-03T06:34:03.083Z,9.52
2022-11-03T06:36:16.300Z,9.52
2022-11-03T06:38:23.129Z,8.20
2022-11-03T06:40:34.840Z,9.38
2022-11-03T06:42:39.805Z,9.98
2022-11-03T06:44:44.821Z,9.25
2022-11-03T06:46:47.522Z,8.20
2022-11-03T06:48:50.987Z,7.50
2022-11-03T06:50:56.009Z,6.80
2022-11-03T06:53:00.480Z,7.28
2022-11-03T06:55:21.544Z,7.30
2022-11-03T06:57:24.218Z,7.45
2022-11-03T06:59:26.929Z,7.10
2022-11-03T07:01:32.454Z,6.45
2022-11-03T07:03:37.836Z,5.47
2022-11-03T07:05:41.325Z,5.00
2022-11-03T07:07:45.374Z,4.93
2022-11-03T07:09:48.113Z,4.90
2022-11-03T07:11:53.114Z,5.80
2022-11-03T07:13:58.499Z,6.10
2022-11-03T07:16:01.560Z,5.85
2022-11-03T07:18:14.081Z,9.10
2022-11-03T07:20:18.024Z,10.18
2022-11-03T07:22:24.583Z,10.63
2022-11-03T07:24:31.342Z,6.60
2022-11-03T07:26:35.429Z,9.63
2022-11-03T07:28:39.895Z,7.45
2022-11-03T07:30:43.653Z,6.47
2022-11-03T07:32:47.051Z,4.63
2022-11-03T07:34:53.518Z,4.70
2022-11-03T07:36:59.099Z,5.18
2022-11-03T07:39:03.198Z,4.93
2022-11-03T07:41:13.550Z,5.50
2022-11-03T07:43:19.408Z,7.47
2022-11-03T07:45:37.051Z,7.18
2022-11-03T07:47:39.797Z,8.38
2022-11-03T07:49:43.574Z,9.57
2022-11-03T07:51:46.658Z,8.13
2022-11-03T07:53:52.099Z,6.90
2022-11-03T07:55:56.811Z,7.72
2022-11-03T07:58:01.574Z,8.00
2022-11-03T08:00:10.396Z,6.30
2022-11-03T08:02:30.799Z,5.20
2022-11-03T08:04:36.343Z,4.22
2022-11-03T08:06:39.055Z,5.25
2022-11-03T08:08:41.788Z,5.05
2022-11-03T08:10:44.474Z,4.85
2022-11-03T08:12:47.139Z,4.82
2022-11-03T08:14:51.485Z,4.72
2022-11-03T08:16:54.279Z,4.53
2022-11-03T08:18:56.956Z,4.55
2022-11-03T08:20:59.661Z,4.63
2022-11-03T08:23:24.446Z,4.70
2022-11-03T08:25:25.113Z,4.95
2022-11-03T08:27:27.984Z,4.28
2022-11-03T08:29:30.722Z,4.55
2022-11-03T08:31:34.804Z,4.53
2022-11-03T08:33:37.515Z,4.40
2022-11-03T08:35:40.424Z,4.50
2022-11-03T08:37:43.329Z,4.60
2022-11-03T08:39:46.038Z,4.68
2022-11-03T08:41:48.771Z,4.95
2022-11-03T08:43:51.477Z,5.45
2022-11-03T08:45:54.581Z,5.22
2022-11-03T08:47:58.743Z,4.90
2022-11-03T08:50:01.903Z,5.40
2022-11-03T08:52:04.962Z,4.43
2022-11-03T08:54:07.716Z,5.10
2022-11-03T08:56:13.006Z,5.18
2022-11-03T08:58:17.583Z,5.30
2022-11-03T09:00:20.519Z,6.82
2022-11-03T09:02:23.498Z,5.93
2022-11-03T09:04:27.610Z,6.03
2022-11-03T09:06:30.236Z,7.95
2022-11-03T09:10:55.648Z,6.88
2022-11-03T09:12:58.364Z,6.93
2022-11-03T09:15:01.073Z,6.22
2022-11-03T09:19:11.362Z,6.78
2022-11-03T09:21:15.526Z,7.28
2022-11-03T09:23:18.235Z,6.85
2022-11-03T09:25:21.149Z,6.93
2022-11-03T09:27:23.923Z,6.82
2022-11-03T09:29:30.039Z,6.88
2022-11-03T09:31:39.166Z,6.88
2022-11-03T09:33:41.975Z,6.78
2022-11-03T09:35:44.715Z,7.15
2022-11-03T09:37:48.772Z,7.10
2022-11-03T09:39:52.452Z,7.07
2022-11-03T09:41:59.162Z,6.70
2022-11-03T09:44:02.271Z,6.80
2022-11-03T09:46:05.072Z,6.80
2022-11-03T09:48:11.238Z,6.30
2022-11-03T09:50:17.393Z,6.65
2022-11-03T09:52:24.138Z,6.47
2022-11-03T09:54:29.724Z,7.07
2022-11-03T09:56:32.880Z,6.68
2022-11-03T09:58:35.589Z,6.55
2022-11-03T10:00:38.557Z,6.75
2022-11-03T10:02:43.262Z,7.03
2022-11-03T10:04:46.192Z,7.13
2022-11-03T10:06:48.867Z,6.32
2022-11-03T10:08:51.581Z,7.20
2022-11-03T10:10:56.030Z,6.55
2022-11-03T10:13:00.857Z,6.63
2022-11-03T10:15:03.599Z,6.80
2022-11-03T10:17:06.502Z,6.63
2022-11-03T10:19:10.715Z,6.50
2022-11-03T10:21:17.331Z,6.65
2022-11-03T10:23:20.044Z,6.78
2022-11-03T10:25:37.704Z,6.65
2022-11-03T10:27:41.765Z,6.63
2022-11-03T10:29:48.429Z,6.35
2022-11-03T10:31:56.821Z,6.72
2022-11-03T10:33:59.532Z,6.70
2022-11-03T10:36:03.409Z,7.27
2022-11-03T10:38:25.446Z,6.33
2022-11-03T10:40:53.015Z,6.20
2022-11-03T10:43:00.433Z,6.87
2022-11-03T10:45:17.272Z,5.97
2022-11-03T10:47:33.707Z,6.20
2022-11-03T10:49:40.904Z,6.50
2022-11-03T10:51:49.283Z,6.33
2022-11-03T10:53:52.030Z,6.10
2022-11-03T10:55:55.690Z,5.97
2022-11-03T10:58:00.651Z,6.47
2022-11-03T11:00:04.095Z,6.10
2022-11-03T11:02:16.767Z,6.20
2022-11-03T11:04:21.857Z,6.20
2022-11-03T11:06:27.075Z,6.33
2022-11-03T11:08:29.814Z,6.17
2022-11-03T11:10:32.640Z,6.30
2022-11-03T11:12:35.610Z,6.70
2022-11-03T11:14:52.766Z,6.63
2022-11-03T11:16:57.065Z,6.53
2022-11-03T11:19:03.411Z,6.63
2022-11-03T11:21:49.461Z,6.60
2022-11-03T11:23:53.266Z,6.87
2022-11-03T11:26:15.358Z,6.43
2022-11-03T11:28:20.051Z,6.37
2022-11-03T11:31:02.425Z,6.53
2022-11-03T11:33:22.598Z,7.97
2022-11-03T11:36:09.832Z,34.07
2022-11-03T11:38:45.579Z,93.73
2022-11-03T11:40:52.090Z,56.57
2022-11-03T11:43:27.976Z,46.37
2022-11-03T11:46:07.801Z,26.17
2022-11-03T11:48:19.417Z,9.03
2022-11-03T11:50:32.509Z,36.87
2022-11-03T11:52:40.476Z,15.67
2022-11-03T11:54:44.111Z,7.73
2022-11-03T11:56:49.653Z,7.10
2022-11-03T11:58:54.928Z,6.70
2022-11-03T12:01:00.903Z,6.03
2022-11-03T12:03:06.822Z,6.20
2022-11-03T12:05:21.829Z,5.93
2022-11-03T12:07:33.440Z,5.63
2022-11-03T12:09:36.155Z,6.23
2022-11-03T12:11:45.926Z,6.50
2022-11-03T12:13:52.555Z,6.83
2022-11-03T12:15:56.545Z,6.00
2022-11-03T12:17:59.276Z,6.27
2022-11-03T12:20:01.969Z,6.40
2022-11-03T12:22:07.462Z,6.73
2022-11-03T12:24:47.993Z,6.63
2022-11-03T12:26:50.756Z,5.60
2022-11-03T12:28:53.430Z,5.33
2022-11-03T12:30:56.162Z,5.60
2022-11-03T12:32:58.826Z,8.10
2022-11-03T12:35:01.563Z,7.40
2022-11-03T12:37:04.267Z,6.67
2022-11-03T12:39:08.568Z,6.17
2022-11-03T12:41:24.684Z,6.40
2022-11-03T12:43:27.421Z,6.50
2022-11-03T12:45:30.095Z,5.97
2022-11-03T12:47:32.825Z,5.63
2022-11-03T12:49:36.324Z,6.07
2022-11-03T12:51:39.042Z,6.20
2022-11-03T12:53:42.022Z,6.00
2022-11-03T12:55:46.046Z,6.67
2022-11-03T12:57:48.785Z,6.77
2022-11-03T12:59:52.275Z,6.40
2022-11-03T13:01:55.141Z,6.80
2022-11-03T13:03:57.878Z,6.50
2022-11-03T13:06:01.401Z,6.13
2022-11-03T13:08:04.274Z,6.03
2022-11-03T13:10:07.955Z,6.07
2022-11-03T13:12:31.397Z,6.23
2022-11-03T13:14:34.102Z,5.73
2022-11-03T13:16:36.839Z,6.77
2022-11-03T13:18:39.593Z,6.67
2022-11-03T13:20:44.193Z,8.07
2022-11-03T13:22:46.926Z,9.37
2022-11-03T13:24:49.667Z,8.97
2022-11-03T13:26:52.420Z,15.70
2022-11-03T13:28:56.489Z,9.67
2022-11-03T13:30:59.354Z,14.13
2022-11-03T13:33:02.164Z,9.00
2022-11-03T13:35:08.221Z,8.03
2022-11-03T13:37:15.231Z,6.97
2022-11-03T13:39:17.992Z,9.27
2022-11-03T13:41:20.758Z,15.03
2022-11-03T13:43:23.494Z,12.17
2022-11-03T13:45:27.993Z,15.17
2022-11-03T13:47:44.402Z,15.57
2022-11-03T13:50:13.003Z,13.63
2022-11-03T13:52:16.481Z,11.30
2022-11-03T14:01:29.371Z,13.63
2022-11-03T14:05:55.103Z,7.27
2022-11-03T14:07:57.882Z,6.97
2022-11-03T14:10:03.764Z,6.90
2022-11-03T14:12:25.351Z,6.67
2022-11-03T14:14:28.096Z,6.73
2022-11-03T14:16:32.222Z,6.80
2022-11-03T14:18:35.009Z,6.80
2022-11-03T14:20:37.714Z,7.00
2022-11-03T14:22:40.827Z,7.70
2022-11-03T14:24:44.389Z,7.63
2022-11-03T14:26:47.156Z,8.20
2022-11-03T14:28:49.857Z,6.97
2022-11-03T14:30:52.606Z,5.97
2022-11-03T14:32:59.534Z,6.77
2022-11-03T14:35:02.613Z,9.13
2022-11-03T14:37:05.765Z,9.27
2022-11-03T14:39:08.591Z,10.47
2022-11-03T14:41:28.865Z,9.80
2022-11-03T14:43:35.139Z,10.47
2022-11-03T14:45:39.915Z,12.97
2022-11-03T14:47:45.272Z,18.93
2022-11-03T14:49:49.415Z,9.60
2022-11-03T14:51:52.377Z,8.33
2022-11-03T14:53:55.219Z,18.23
2022-11-03T14:55:57.932Z,16.43
2022-11-03T14:58:00.657Z,16.40
2022-11-03T15:00:03.888Z,12.20
2022-11-03T15:02:07.211Z,9.40
2022-11-03T15:04:10.075Z,9.35
2022-11-03T15:06:14.417Z,9.93
2022-11-03T15:08:19.792Z,9.13
2022-11-03T15:10:22.505Z,9.13
2022-11-03T15:12:25.282Z,9.17
2022-11-03T15:14:28.063Z,17.60
2022-11-03T15:16:30.974Z,17.83
2022-11-03T15:18:33.754Z,13.48
2022-11-03T15:20:36.502Z,7.77
2022-11-03T15:25:21.737Z,11.20
2022-11-03T15:27:26.034Z,12.83
2022-11-03T15:29:28.769Z,12.60
2022-11-03T15:31:31.464Z,14.13
2022-11-03T15:33:34.174Z,15.80
2022-11-03T15:35:36.914Z,16.30
2022-11-03T15:37:42.247Z,14.13
2022-11-03T15:39:45.083Z,12.23
2022-11-03T15:41:47.763Z,11.83
2022-11-03T15:43:51.341Z,24.47
2022-11-03T15:45:53.992Z,21.00
2022-11-03T15:48:06.961Z,18.43
2022-11-03T15:50:11.408Z,11.70
2022-11-03T15:52:14.098Z,9.33
2022-11-03T15:54:18.135Z,12.07
2022-11-03T15:56:20.793Z,12.40
2022-11-03T15:58:23.475Z,16.57
2022-11-03T16:00:26.437Z,13.23
2022-11-03T16:02:41.428Z,13.00
2022-11-03T16:04:45.078Z,14.70
2022-11-03T16:07:08.693Z,15.23
2022-11-03T16:09:10.546Z,13.67
2022-11-03T16:11:14.656Z,13.40
2022-11-03T16:13:17.349Z,12.77
2022-11-03T16:15:20.001Z,22.17
2022-11-03T16:17:22.916Z,12.40
2022-11-03T16:19:25.592Z,12.88
2022-11-03T16:21:28.674Z,12.07
2022-11-03T16:23:32.078Z,14.50
2022-11-03T16:25:34.861Z,11.53
2022-11-03T16:27:38.951Z,14.45
2022-11-03T16:29:41.675Z,15.65
2022-11-03T16:31:44.447Z,14.85
2022-11-03T16:33:47.163Z,10.65
2022-11-03T16:35:49.980Z,10.80
2022-11-03T16:37:52.888Z,11.13
2022-11-03T16:39:55.663Z,15.50
2022-11-03T16:41:58.363Z,9.00
2022-11-03T16:44:02.462Z,8.65
2022-11-03T16:46:05.200Z,8.55
2022-11-03T16:48:08.551Z,10.50
2022-11-03T16:50:11.561Z,8.80
2022-11-03T16:52:14.310Z,6.78
2022-11-03T16:54:17.277Z,7.43
2022-11-03T16:56:20.020Z,6.63
2022-11-03T16:58:22.742Z,7.25
2022-11-03T17:00:26.895Z,6.93
2022-11-03T17:02:29.682Z,5.60
2022-11-03T17:04:32.889Z,4.95
2022-11-03T17:06:35.646Z,5.60
2022-11-03T17:08:52.360Z,9.40
2022-11-03T17:10:55.823Z,13.35
2022-11-03T17:12:58.844Z,8.20
2022-11-03T17:15:01.575Z,8.07
2022-11-03T17:17:05.711Z,7.18
2022-11-03T17:19:09.210Z,6.05
2022-11-03T17:21:11.891Z,5.60
2022-11-03T17:23:14.645Z,5.82
2022-11-03T17:25:17.417Z,9.15
2022-11-03T17:27:22.831Z,10.40
2022-11-03T17:29:34.416Z,7.40
2022-11-03T17:31:37.110Z,7.60
2022-11-03T17:33:41.223Z,10.05
2022-11-03T17:35:46.097Z,10.10
2022-11-03T17:37:49.192Z,8.05
2022-11-03T17:39:52.279Z,8.73
2022-11-03T17:41:55.042Z,7.45
2022-11-03T17:43:57.818Z,5.40
2022-11-03T17:46:00.849Z,5.68
2022-11-03T17:48:03.615Z,6.28
2022-11-03T17:50:09.292Z,6.88
2022-11-03T17:52:15.500Z,6.15
2022-11-03T17:54:18.402Z,5.70
2022-11-03T17:56:30.157Z,4.93
2022-11-03T17:58:35.648Z,5.45
2022-11-03T18:00:38.738Z,5.10
2022-11-03T18:02:41.862Z,5.82
2022-11-03T18:04:44.895Z,6.63
2022-11-03T18:06:48.980Z,6.07
2022-11-03T18:08:51.692Z,5.82
2022-11-03T18:10:56.301Z,5.60
2022-11-03T18:13:17.828Z,5.97
2022-11-03T18:15:23.340Z,6.13
2022-11-03T18:17:26.114Z,6.18
2022-11-03T18:19:29.010Z,6.00
2022-11-03T18:21:31.932Z,6.80
2022-11-03T18:23:36.798Z,6.93
2022-11-03T18:25:39.582Z,5.60
2022-11-03T18:27:43.080Z,6.18
2022-11-03T18:29:45.885Z,6.47
2022-11-03T18:31:50.760Z,5.97
2022-11-03T18:33:54.750Z,6.05
2022-11-03T18:35:58.356Z,6.50
2022-11-03T18:38:01.516Z,6.68
2022-11-03T18:40:06.432Z,6.30
2022-11-03T18:42:14.276Z,7.13
2022-11-03T18:44:20.123Z,6.90
2022-11-03T18:46:22.883Z,8.57
2022-11-03T18:48:25.614Z,7.50
2022-11-03T18:50:28.408Z,6.97
2022-11-03T18:52:31.254Z,7.22
2022-11-03T18:54:36.098Z,8.00
2022-11-03T18:56:40.444Z,8.02
2022-11-03T18:58:43.346Z,7.72
2022-11-03T19:00:48.360Z,7.10
2022-11-03T19:02:51.448Z,7.22
2022-11-03T19:04:54.266Z,7.00
2022-11-03T19:06:58.465Z,7.30
2022-11-03T19:09:01.826Z,7.00
2022-11-03T19:11:04.967Z,7.30
2022-11-03T19:13:15.363Z,7.10
2022-11-03T19:15:20.577Z,6.65
2022-11-03T19:17:25.264Z,8.55
2022-11-03T19:19:28.468Z,7.15
2022-11-03T19:21:31.286Z,7.25
2022-11-03T19:23:34.694Z,7.60
2022-11-03T19:25:42.838Z,7.50
2022-11-03T19:27:48.993Z,8.00
2022-11-03T19:29:53.710Z,7.75
2022-11-03T19:31:56.919Z,8.10
2022-11-03T19:34:00.117Z,8.65
2022-11-03T19:36:02.880Z,9.00
2022-11-03T19:38:10.397Z,8.90
2022-11-03T19:40:15.857Z,7.50
2022-11-03T19:42:28.219Z,7.90
2022-11-03T19:44:30.986Z,8.40
2022-11-03T19:46:35.149Z,7.85
2022-11-03T19:48:38.004Z,7.88
2022-11-03T19:50:40.798Z,7.95
2022-11-03T19:52:43.778Z,7.95
2022-11-03T19:54:48.884Z,8.00
2022-11-03T19:56:52.069Z,8.38
2022-11-03T19:58:54.775Z,8.52
2022-11-03T20:00:58.094Z,8.85
2022-11-03T20:03:03.172Z,9.05
2022-11-03T20:05:06.757Z,9.90
2022-11-03T20:07:09.854Z,10.75
2022-11-03T20:09:16.985Z,10.40
2022-11-03T20:11:20.236Z,10.48
2022-11-03T20:13:24.865Z,10.27
2022-11-03T20:15:27.670Z,10.80
2022-11-03T20:17:30.412Z,10.00
2022-11-03T20:19:34.530Z,9.48
2022-11-03T20:21:37.395Z,9.38
2022-11-03T20:23:40.269Z,9.93
2022-11-03T20:25:43.581Z,9.57
2022-11-03T20:27:46.403Z,10.00
2022-11-03T20:29:49.294Z,9.60
2022-11-03T20:31:51.997Z,9.07
2022-11-03T20:33:54.788Z,9.15
2022-11-03T20:35:59.512Z,9.27
2022-11-03T20:38:02.999Z,9.20
2022-11-03T20:40:11.939Z,9.32
2022-11-03T20:42:21.183Z,9.30
2022-11-03T20:44:24.050Z,9.65
2022-11-03T20:46:29.125Z,10.82
2022-11-03T20:48:31.875Z,10.60
2022-11-03T20:50:41.587Z,10.43
2022-11-03T20:52:48.010Z,10.98
2022-11-03T20:54:51.881Z,11.48
2022-11-03T20:56:54.644Z,9.65
2022-11-03T20:58:58.211Z,11.10
2022-11-03T21:01:01.784Z,11.52
2022-11-03T21:03:31.413Z,9.00
2022-11-03T21:05:39.021Z,9.57
2022-11-03T21:07:45.010Z,8.55
2022-11-03T21:09:49.116Z,9.20
2022-11-03T21:11:53.573Z,8.95
2022-11-03T21:13:58.396Z,9.50
2022-11-03T21:16:24.458Z,8.95
2022-11-03T21:18:45.271Z,9.32
2022-11-03T21:20:48.272Z,9.20
2022-11-03T21:22:52.965Z,8.90
2022-11-03T21:24:58.339Z,10.30
2022-11-03T21:27:01.099Z,8.65
2022-11-03T21:29:03.841Z,9.30
2022-11-03T21:31:07.320Z,9.93
2022-11-03T21:33:10.146Z,8.93
2022-11-03T21:35:15.898Z,10.43
2022-11-03T21:37:18.730Z,8.77
2022-11-03T21:39:21.465Z,9.13
2022-11-03T21:41:42.964Z,11.15
2022-11-03T21:44:03.308Z,8.18
2022-11-03T21:46:07.975Z,8.52
2022-11-03T21:48:28.359Z,9.90
2022-11-03T21:50:31.114Z,9.45
2022-11-03T21:52:33.881Z,8.77
2022-11-03T21:54:36.658Z,7.68
2022-11-03T21:56:40.716Z,8.32
2022-11-03T21:58:44.183Z,8.77
2022-11-03T22:00:47.600Z,7.22
2022-11-03T22:02:50.519Z,7.07
2022-11-03T22:04:55.091Z,6.70
2022-11-03T22:07:00.190Z,6.43
2022-11-03T22:09:03.012Z,6.50
2022-11-03T22:11:24.759Z,6.20
2022-11-03T22:13:28.923Z,6.40
2022-11-03T22:15:49.304Z,5.43
2022-11-03T22:17:52.130Z,5.20
2022-11-03T22:20:12.571Z,5.95
2022-11-03T22:22:33.363Z,5.95
2022-11-03T22:24:53.696Z,5.10
2022-11-03T22:26:57.717Z,4.57
2022-11-03T22:29:19.528Z,3.92
2022-11-03T22:31:39.862Z,3.60
2022-11-03T22:33:56.576Z,4.03
2022-11-03T22:36:21.593Z,2.78
2022-11-03T22:38:45.103Z,1.90
2022-11-03T22:41:05.915Z,1.63
2022-11-03T22:43:27.468Z,1.25
2022-11-03T22:45:49.171Z,1.10
2022-11-03T22:47:56.977Z,1.00
2022-11-03T22:50:00.434Z,1.27
2022-11-03T22:52:04.116Z,1.23
2022-11-03T22:54:12.029Z,0.80
2022-11-03T22:56:15.150Z,0.73
2022-11-03T22:58:18.023Z,1.10
2022-11-03T23:00:22.247Z,1.02
2022-11-03T23:02:26.543Z,0.90
2022-11-03T23:04:29.450Z,0.88
2022-11-03T23:06:36.554Z,0.90
2022-11-03T23:08:41.710Z,1.05
2022-11-03T23:10:44.428Z,0.90
2022-11-03T23:12:47.244Z,1.00
2022-11-03T23:15:06.811Z,1.20
2022-11-03T23:17:09.583Z,1.15
2022-11-03T23:19:32.758Z,1.08
2022-11-03T23:21:36.284Z,0.75
2022-11-03T23:23:58.006Z,0.60
2022-11-03T23:26:00.805Z,1.00
2022-11-03T23:28:03.596Z,0.80
2022-11-03T23:30:07.258Z,1.30
2022-11-03T23:32:10.087Z,0.93
2022-11-03T23:34:15.204Z,0.95
2022-11-03T23:36:18.521Z,0.93
2022-11-03T23:38:21.261Z,1.20
2022-11-03T23:40:24.220Z,1.00
2022-11-03T23:42:26.991Z,0.80
2022-11-03T23:44:50.089Z,0.90
2022-11-03T23:47:10.348Z,0.90
2022-11-03T23:49:14.776Z,1.00
2022-11-03T23:51:19.379Z,0.95
2022-11-03T23:53:22.099Z,0.75
2022-11-03T23:55:24.827Z,0.98
2022-11-03T23:57:45.234Z,1.00
2022-11-03T23:59:47.934Z,1.27
